Time;durP1;ratioP1;P1;durP2;ratioP2;P2;SDS_P1;SDS_P2;PMS_P1;PMS_P2;Temp;Humidity;BMP_temperature;BMP_pressure;BME280_temperature;BME280_humidity;BME280_pressure;Samples;Min_cycle;Max_cycle;Signal;HPM_P1;HPM_P2
2023/03/04 00:01:39;;;;;;;7.35;3.03;;;6.00;99.90;;;;;;5045976;28;20117;-91
2023/03/04 00:04:04;;;;;;;9.02;2.75;;;5.90;99.90;;;;;;5036444;28;20018;-92
2023/03/04 00:06:30;;;;;;;7.85;3.03;;;5.90;99.90;;;;;;5042592;28;20128;-89
2023/03/04 00:08:56;;;;;;;9.32;2.42;;;5.90;99.90;;;;;;5038553;28;20288;-90
2023/03/04 00:11:22;;;;;;;11.13;2.47;;;5.90;99.90;;;;;;5022398;28;20034;-91
2023/03/04 00:13:47;;;;;;;9.25;2.42;;;5.90;99.90;;;;;;5038889;28;20029;-91
2023/03/04 00:16:13;;;;;;;7.28;2.40;;;6.00;99.90;;;;;;5037211;28;20080;-91
2023/03/04 00:18:39;;;;;;;4.90;2.30;;;5.90;99.90;;;;;;5033427;28;20044;-91
2023/03/04 00:21:04;;;;;;;9.35;3.00;;;5.90;99.90;;;;;;5042713;28;20088;-92
2023/03/04 00:23:30;;;;;;;5.03;2.28;;;5.90;99.90;;;;;;5030025;28;20029;-91
2023/03/04 00:25:56;;;;;;;6.47;2.58;;;5.80;99.90;;;;;;5015032;28;20064;-91
2023/03/04 00:28:21;;;;;;;5.28;2.47;;;5.90;99.90;;;;;;5038443;28;20559;-92
2023/03/04 00:30:47;;;;;;;8.70;2.67;;;5.90;99.90;;;;;;5029577;28;20029;-91
2023/03/04 00:33:12;;;;;;;5.80;2.55;;;5.90;99.90;;;;;;5019399;28;20120;-91
2023/03/04 00:35:38;;;;;;;10.38;2.58;;;5.90;99.90;;;;;;5018020;28;20021;-91
2023/03/04 00:38:04;;;;;;;11.05;2.47;;;5.80;98.90;;;;;;5015506;28;20075;-90
2023/03/04 00:40:29;;;;;;;7.30;2.42;;;5.80;98.80;;;;;;5034510;28;20045;-90
2023/03/04 00:42:55;;;;;;;7.05;2.40;;;5.80;99.90;;;;;;5038378;28;20026;-90
2023/03/04 00:45:20;;;;;;;14.05;2.55;;;5.70;99.90;;;;;;5024300;28;20172;-91
2023/03/04 00:47:46;;;;;;;10.45;2.90;;;5.70;99.90;;;;;;5031421;28;20056;-92
2023/03/04 00:50:12;;;;;;;14.77;2.85;;;5.70;98.10;;;;;;5019611;28;20460;-91
2023/03/04 00:52:37;;;;;;;10.02;2.60;;;5.70;99.40;;;;;;5039246;28;20037;-92
2023/03/04 00:55:04;;;;;;;11.30;2.22;;;5.70;98.70;;;;;;5033838;28;20018;-92
2023/03/04 00:57:29;;;;;;;6.70;3.13;;;5.70;98.70;;;;;;5039008;28;20045;-90
2023/03/04 00:59:55;;;;;;;10.25;2.47;;;5.70;97.50;;;;;;5040848;28;20109;-92
2023/03/04 01:02:20;;;;;;;9.32;2.45;;;5.70;97.60;;;;;;5030747;28;20101;-91
2023/03/04 01:04:46;;;;;;;8.38;2.58;;;5.70;97.90;;;;;;5040122;28;20049;-88
2023/03/04 01:07:12;;;;;;;8.88;2.45;;;5.70;96.60;;;;;;5033907;28;20056;-91
2023/03/04 01:09:37;;;;;;;9.13;2.67;;;5.80;98.30;;;;;;5037437;28;20093;-91
2023/03/04 01:12:03;;;;;;;9.38;2.30;;;5.70;95.60;;;;;;5026790;28;20021;-91
2023/03/04 01:14:28;;;;;;;9.52;2.00;;;5.70;96.50;;;;;;5020430;28;20192;-91
2023/03/04 01:16:54;;;;;;;10.77;2.40;;;5.70;97.50;;;;;;5019114;28;20084;-92
2023/03/04 01:19:20;;;;;;;6.78;2.00;;;5.70;97.90;;;;;;5028858;28;20298;-91
2023/03/04 01:21:45;;;;;;;8.48;2.20;;;5.70;94.00;;;;;;5042176;28;20017;-90
2023/03/04 01:24:11;;;;;;;6.70;1.83;;;5.70;97.00;;;;;;5041057;28;20018;-91
2023/03/04 01:26:37;;;;;;;8.57;1.98;;;5.60;97.60;;;;;;5042544;28;20084;-91
2023/03/04 01:29:03;;;;;;;6.82;1.90;;;5.60;95.50;;;;;;5035457;28;20040;-91
2023/03/04 01:31:28;;;;;;;7.93;2.13;;;5.70;97.10;;;;;;5020908;28;20020;-90
2023/03/04 01:33:54;;;;;;;12.90;1.92;;;5.60;97.60;;;;;;5048746;28;20043;-89
2023/03/04 01:36:20;;;;;;;6.50;1.50;;;5.60;94.60;;;;;;5031161;28;20021;-91
2023/03/04 01:38:46;;;;;;;15.52;1.98;;;5.60;96.70;;;;;;5048035;28;20056;-91
2023/03/04 01:41:12;;;;;;;10.25;1.80;;;5.60;97.60;;;;;;5032464;28;20144;-92
2023/03/04 01:43:38;;;;;;;6.70;1.40;;;5.50;97.60;;;;;;5020497;28;20765;-92
2023/03/04 01:46:04;;;;;;;8.68;1.60;;;5.60;99.90;;;;;;5039197;28;20029;-92
2023/03/04 01:48:36;;;;;;;7.78;1.30;;;5.60;99.80;;;;;;5036318;28;20045;-91
2023/03/04 01:51:09;;;;;;;7.47;1.40;;;5.70;98.90;;;;;;5034486;28;20234;-92
2023/03/04 01:53:35;;;;;;;6.50;1.65;;;5.70;98.30;;;;;;5035549;28;20064;-93
2023/03/04 01:56:13;;;;;;;9.52;1.42;;;5.70;98.60;;;;;;5040715;28;20033;-92
2023/03/04 01:58:39;;;;;;;5.53;1.52;;;5.60;99.70;;;;;;5040658;28;20053;-91
2023/03/04 02:01:04;;;;;;;13.07;1.95;;;5.50;97.70;;;;;;5041386;28;20041;-91
2023/03/04 02:03:30;;;;;;;8.38;1.23;;;5.50;97.70;;;;;;5019994;28;20052;-90
2023/03/04 02:05:56;;;;;;;13.43;1.73;;;5.50;99.00;;;;;;5042898;28;20029;-90
2023/03/04 02:08:23;;;;;;;8.65;1.60;;;5.50;99.90;;;;;;5018882;28;20097;-88
2023/03/04 02:10:50;;;;;;;6.85;1.60;;;5.50;99.60;;;;;;5023752;28;20105;-90
2023/03/04 02:13:16;;;;;;;8.88;1.98;;;5.50;98.90;;;;;;5022541;28;20040;-91
2023/03/04 02:15:44;;;;;;;14.23;1.95;;;5.50;99.00;;;;;;5023964;28;20033;-91
2023/03/04 02:18:21;;;;;;;12.30;1.85;;;5.50;98.10;;;;;;5040593;28;20244;-91
2023/03/04 02:21:15;;;;;;;9.55;1.83;;;5.50;97.50;;;;;;5020026;28;20025;-91
2023/03/04 02:23:56;;;;;;;12.25;1.90;;;5.50;99.90;;;;;;5025199;28;20037;-91
2023/03/04 02:26:24;;;;;;;8.32;2.05;;;5.50;99.90;;;;;;5046347;28;20012;-92
2023/03/04 02:28:52;;;;;;;10.77;1.75;;;5.50;99.90;;;;;;5043491;28;20055;-91
2023/03/04 02:31:37;;;;;;;8.63;1.85;;;5.50;99.90;;;;;;5040160;28;20029;-90
2023/03/04 02:34:15;;;;;;;4.85;1.65;;;5.50;99.90;;;;;;5021072;28;20324;-92
2023/03/04 02:36:41;;;;;;;7.60;1.90;;;5.50;99.90;;;;;;5036731;28;20029;-92
2023/03/04 02:39:20;;;;;;;10.68;1.90;;;5.50;99.90;;;;;;5024012;28;20267;-91
2023/03/04 02:41:47;;;;;;;5.50;2.42;;;5.50;99.90;;;;;;5046059;28;20057;-91
2023/03/04 02:44:23;;;;;;;8.00;1.83;;;5.50;99.90;;;;;;5027609;28;20032;-92
2023/03/04 02:46:50;;;;;;;7.47;1.92;;;5.50;99.90;;;;;;5025148;28;20029;-91
2023/03/04 02:49:16;;;;;;;11.27;2.42;;;5.60;99.90;;;;;;5024072;28;20050;-91
2023/03/04 02:51:42;;;;;;;10.63;2.00;;;5.50;98.80;;;;;;5021507;28;20033;-91
2023/03/04 02:54:20;;;;;;;7.05;1.60;;;5.50;99.90;;;;;;5029053;28;20481;-92
2023/03/04 02:56:50;;;;;;;8.52;2.13;;;5.60;99.90;;;;;;5028232;28;20034;-90
2023/03/04 02:59:16;;;;;;;13.20;2.30;;;5.60;99.90;;;;;;5018610;28;20044;-91
2023/03/04 03:01:42;;;;;;;8.43;2.20;;;5.50;98.20;;;;;;5027797;28;20100;-91
2023/03/04 03:04:08;;;;;;;6.45;2.17;;;5.50;99.90;;;;;;5029565;22;20144;-74
2023/03/04 03:06:34;;;;;;;6.25;1.85;;;5.50;99.90;;;;;;5020080;28;20029;-75
2023/03/04 03:08:59;;;;;;;8.13;1.80;;;5.50;99.90;;;;;;5023085;28;20403;-74
2023/03/04 03:11:25;;;;;;;6.68;2.00;;;5.60;99.90;;;;;;5040171;28;20431;-74
2023/03/04 03:13:51;;;;;;;10.32;2.25;;;5.60;99.90;;;;;;5037960;28;20068;-74
2023/03/04 03:16:16;;;;;;;4.25;1.95;;;5.60;99.90;;;;;;5039763;28;20029;-74
2023/03/04 03:18:42;;;;;;;10.07;1.85;;;5.60;99.90;;;;;;5022140;28;20032;-74
2023/03/04 03:21:07;;;;;;;9.82;2.20;;;5.70;99.90;;;;;;5021921;28;20036;-75
2023/03/04 03:23:33;;;;;;;14.63;2.30;;;5.70;99.90;;;;;;5039991;28;20680;-74
2023/03/04 03:25:59;;;;;;;7.68;2.78;;;5.60;99.90;;;;;;5040412;28;20036;-74
2023/03/04 03:28:25;;;;;;;6.28;1.73;;;5.70;99.90;;;;;;5032127;28;20068;-74
2023/03/04 03:30:51;;;;;;;5.88;2.63;;;5.60;99.90;;;;;;5039976;28;20025;-73
2023/03/04 03:33:16;;;;;;;8.90;2.17;;;5.60;99.90;;;;;;5021638;28;20487;-75
2023/03/04 03:35:42;;;;;;;7.90;2.10;;;5.50;99.90;;;;;;5041917;28;20179;-75
2023/03/04 03:38:07;;;;;;;9.52;2.40;;;5.50;99.90;;;;;;5040287;28;20488;-74
2023/03/04 03:40:33;;;;;;;8.55;2.30;;;5.50;99.90;;;;;;5040004;28;20444;-74
2023/03/04 03:42:59;;;;;;;9.93;2.10;;;5.50;99.10;;;;;;5024805;28;20520;-74
2023/03/04 03:45:24;;;;;;;10.63;2.22;;;5.50;98.40;;;;;;5022443;28;20037;-75
2023/03/04 03:47:50;;;;;;;11.45;2.30;;;5.50;99.50;;;;;;5038347;28;20025;-73
2023/03/04 03:50:16;;;;;;;7.80;2.13;;;5.50;99.90;;;;;;5040569;28;20041;-74
2023/03/04 03:52:41;;;;;;;5.93;1.77;;;5.50;99.90;;;;;;5039123;28;20024;-74
2023/03/04 03:55:07;;;;;;;11.38;2.05;;;5.50;99.90;;;;;;5022719;28;20064;-73
2023/03/04 03:57:33;;;;;;;7.70;2.45;;;5.50;99.90;;;;;;5038927;28;20116;-74
2023/03/04 03:59:58;;;;;;;9.73;2.38;;;5.60;99.90;;;;;;5039738;28;20040;-73
2023/03/04 04:02:24;;;;;;;8.02;2.10;;;5.70;99.90;;;;;;5039607;28;20079;-74
2023/03/04 04:04:50;;;;;;;11.73;2.15;;;5.60;99.90;;;;;;5038596;28;20052;-75
2023/03/04 04:07:15;;;;;;;7.97;1.42;;;5.60;99.90;;;;;;5040312;28;20041;-75
2023/03/04 04:09:41;;;;;;;7.00;1.40;;;5.70;99.90;;;;;;5040370;28;20137;-76
2023/03/04 04:12:07;;;;;;;8.15;2.22;;;5.60;99.90;;;;;;5020349;28;20028;-75
2023/03/04 04:14:33;;;;;;;9.07;1.80;;;5.60;99.90;;;;;;5021101;28;20131;-75
2023/03/04 04:16:59;;;;;;;6.18;1.73;;;5.60;99.90;;;;;;5036428;28;20025;-75
2023/03/04 04:19:25;;;;;;;10.38;1.98;;;5.70;99.90;;;;;;5039685;28;20539;-75
2023/03/04 04:21:50;;;;;;;7.75;1.92;;;5.50;99.60;;;;;;5038403;28;20092;-74
2023/03/04 04:24:16;;;;;;;3.83;1.40;;;5.50;99.90;;;;;;5038133;28;20095;-76
2023/03/04 04:26:42;;;;;;;5.82;1.67;;;5.50;99.90;;;;;;5036948;28;20036;-75
2023/03/04 04:29:08;;;;;;;9.55;1.50;;;5.40;99.90;;;;;;5037698;28;20127;-74
2023/03/04 04:31:34;;;;;;;10.00;1.70;;;5.50;99.90;;;;;;5021176;28;20044;-73
2023/03/04 04:34:00;;;;;;;6.60;1.50;;;5.40;99.90;;;;;;5020336;28;20029;-74
2023/03/04 04:36:26;;;;;;;5.78;1.30;;;5.40;99.90;;;;;;5021018;28;20029;-74
2023/03/04 04:38:51;;;;;;;5.55;1.40;;;5.40;99.90;;;;;;5038253;28;20037;-74
2023/03/04 04:41:23;;;;;;;4.93;1.20;;;5.50;99.90;;;;;;5037988;28;20790;-74
2023/03/04 04:43:48;;;;;;;;;;;5.50;99.90;;;;;;5027568;28;20189;-73
2023/03/04 04:46:15;;;;;;;6.07;1.40;;;5.50;99.90;;;;;;5039430;28;19920;-75
2023/03/04 04:48:41;;;;;;;6.30;1.30;;;5.50;99.90;;;;;;5019026;28;20572;-75
2023/03/04 04:51:06;;;;;;;10.15;1.85;;;5.50;99.90;;;;;;5038873;28;20219;-75
2023/03/04 04:53:32;;;;;;;7.95;1.45;;;5.50;99.90;;;;;;5037746;28;20392;-74
2023/03/04 04:55:58;;;;;;;5.97;1.30;;;5.50;99.90;;;;;;5033400;28;20118;-75
2023/03/04 04:58:24;;;;;;;6.00;1.25;;;5.50;99.90;;;;;;5012425;28;20571;-75
2023/03/04 05:00:49;;;;;;;9.02;1.67;;;5.50;99.90;;;;;;5051858;28;20029;-74
2023/03/04 05:03:15;;;;;;;10.80;1.58;;;5.50;99.90;;;;;;5036286;28;20400;-75
2023/03/04 05:05:41;;;;;;;5.80;1.20;;;5.50;99.90;;;;;;5038015;28;20037;-74
2023/03/04 05:08:07;;;;;;;8.73;1.55;;;5.50;99.90;;;;;;5037619;28;20158;-74
2023/03/04 05:10:32;;;;;;;3.17;1.20;;;5.50;99.10;;;;;;5018541;28;20041;-74
2023/03/04 05:12:58;;;;;;;4.60;1.50;;;5.50;99.90;;;;;;5036056;28;20302;-74
2023/03/04 05:15:24;;;;;;;5.75;1.58;;;5.40;99.90;;;;;;5037295;28;20033;-75
2023/03/04 05:17:49;;;;;;;2.88;1.50;;;5.40;99.90;;;;;;5054813;28;20025;-74
2023/03/04 05:20:15;;;;;;;7.72;1.60;;;5.40;99.90;;;;;;5051391;28;20078;-74
2023/03/04 05:22:40;;;;;;;7.93;1.40;;;5.40;99.90;;;;;;5037687;28;20029;-74
2023/03/04 05:25:06;;;;;;;4.40;1.30;;;5.40;99.90;;;;;;5039241;28;20048;-74
2023/03/04 05:27:32;;;;;;;5.20;1.50;;;5.40;99.90;;;;;;5039554;28;20040;-74
2023/03/04 05:30:00;;;;;;;7.32;2.08;;;5.40;99.90;;;;;;5042164;28;20529;-75
2023/03/04 05:32:26;;;;;;;9.30;1.65;;;5.40;99.90;;;;;;5025142;28;20090;-74
2023/03/04 05:34:52;;;;;;;4.95;1.60;;;5.40;99.90;;;;;;5054245;28;20372;-74
2023/03/04 05:37:17;;;;;;;7.97;2.88;;;5.50;99.90;;;;;;5042325;28;20031;-74
2023/03/04 05:39:43;;;;;;;5.93;2.30;;;5.50;99.90;;;;;;5042414;28;20037;-75
2023/03/04 05:42:09;;;;;;;5.32;1.67;;;5.50;99.90;;;;;;5041621;28;20195;-74
2023/03/04 05:44:34;;;;;;;4.50;1.85;;;5.60;99.90;;;;;;5024664;28;20519;-74
2023/03/04 05:47:00;;;;;;;6.07;1.67;;;5.60;99.90;;;;;;5021439;28;20048;-74
2023/03/04 05:49:25;;;;;;;4.32;1.50;;;5.50;99.90;;;;;;5041140;28;20040;-73
2023/03/04 05:51:51;;;;;;;7.35;2.17;;;5.60;99.90;;;;;;5056245;28;20033;-75
2023/03/04 05:54:16;;;;;;;8.02;1.90;;;5.60;99.90;;;;;;5024869;28;20356;-74
2023/03/04 05:56:42;;;;;;;8.00;1.80;;;5.60;99.90;;;;;;5020606;28;20116;-74
2023/03/04 05:59:08;;;;;;;7.05;1.52;;;5.60;99.90;;;;;;5042924;28;20104;-74
2023/03/04 06:01:33;;;;;;;5.88;1.70;;;5.60;99.90;;;;;;5043029;28;20136;-74
2023/03/04 06:03:59;;;;;;;2.92;1.75;;;5.60;99.90;;;;;;5041889;28;20052;-74
2023/03/04 06:06:25;;;;;;;7.13;1.92;;;5.60;99.90;;;;;;5025061;28;20127;-74
2023/03/04 06:08:50;;;;;;;8.65;1.95;;;5.50;99.90;;;;;;5033409;28;20452;-74
2023/03/04 06:11:16;;;;;;;5.97;2.05;;;5.50;99.90;;;;;;5021770;28;20041;-75
2023/03/04 06:13:41;;;;;;;9.57;2.33;;;5.50;99.90;;;;;;5031563;28;20498;-74
2023/03/04 06:16:08;;;;;;;8.18;1.80;;;5.40;99.90;;;;;;5024565;28;20128;-74
2023/03/04 06:18:34;;;;;;;4.32;2.00;;;5.40;99.90;;;;;;5023712;28;20446;-74
2023/03/04 06:21:02;;;;;;;10.25;2.28;;;5.50;99.90;;;;;;5042752;28;20041;-75
2023/03/04 06:23:29;;;;;;;6.35;1.80;;;5.50;99.90;;;;;;5041618;28;20021;-74
2023/03/04 06:25:57;;;;;;;4.10;1.90;;;5.50;99.90;;;;;;5059789;28;20048;-75
2023/03/04 06:28:23;;;;;;;7.80;1.92;;;5.50;99.90;;;;;;5044462;28;20421;-74
2023/03/04 06:30:52;;;;;;;5.30;1.80;;;5.60;99.90;;;;;;5053940;28;20092;-75
2023/03/04 06:33:18;;;;;;;3.58;1.85;;;5.70;99.90;;;;;;5041139;28;20400;-74
2023/03/04 06:35:43;;;;;;;6.57;2.10;;;5.70;99.90;;;;;;5041980;28;20074;-74
2023/03/04 06:38:09;;;;;;;9.70;2.22;;;5.70;99.90;;;;;;5039676;28;20624;-75
2023/03/04 06:40:35;;;;;;;5.93;1.83;;;5.80;99.90;;;;;;5037132;28;20064;-74
2023/03/04 06:43:00;;;;;;;5.35;2.00;;;5.70;99.90;;;;;;5047644;28;20638;-74
2023/03/04 06:45:26;;;;;;;12.45;1.85;;;5.60;99.90;;;;;;5040487;28;20496;-74
2023/03/04 06:47:51;;;;;;;3.67;2.03;;;5.60;99.90;;;;;;5023035;28;20491;-74
2023/03/04 06:50:17;;;;;;;4.15;1.52;;;5.60;99.90;;;;;;5023759;28;20922;-75
2023/03/04 06:52:43;;;;;;;8.73;1.85;;;5.50;99.90;;;;;;5042442;28;20267;-75
2023/03/04 06:55:09;;;;;;;4.75;1.70;;;5.60;99.90;;;;;;5041785;28;20392;-75
2023/03/04 06:57:35;;;;;;;3.60;1.85;;;5.50;99.90;;;;;;5033597;28;20029;-75
2023/03/04 07:00:02;;;;;;;6.00;2.25;;;5.50;99.90;;;;;;5043789;28;20033;-74
2023/03/04 07:02:28;;;;;;;6.15;1.67;;;5.40;99.90;;;;;;5039176;28;20040;-74
2023/03/04 07:04:53;;;;;;;8.00;2.22;;;5.50;99.90;;;;;;5039174;28;20033;-75
2023/03/04 07:07:19;;;;;;;24.55;11.25;;;5.50;99.90;;;;;;5020503;28;20307;-73
2023/03/04 07:09:44;;;;;;;10.55;3.00;;;5.60;99.90;;;;;;5040050;28;20384;-74
2023/03/04 07:12:10;;;;;;;45.75;16.80;;;5.60;99.90;;;;;;5041784;28;20028;-75
2023/03/04 07:14:36;;;;;;;5.53;2.70;;;5.60;99.90;;;;;;5041187;28;20033;-74
2023/03/04 07:17:01;;;;;;;6.72;2.28;;;5.60;99.90;;;;;;5033633;28;20524;-75
2023/03/04 07:19:27;;;;;;;13.52;4.28;;;5.70;99.90;;;;;;5040630;28;20127;-73
2023/03/04 07:21:53;;;;;;;5.28;2.05;;;5.70;99.90;;;;;;5038481;28;20032;-73
2023/03/04 07:24:18;;;;;;;8.65;2.60;;;5.70;99.90;;;;;;5038167;28;20483;-72
2023/03/04 07:26:44;;;;;;;9.05;4.38;;;5.80;99.90;;;;;;5021612;28;20491;-73
2023/03/04 07:29:11;;;;;;;6.43;2.30;;;5.70;99.90;;;;;;5035566;28;20442;-73
2023/03/04 07:31:37;;;;;;;5.63;2.00;;;5.70;99.90;;;;;;5039932;28;20056;-73
2023/03/04 07:34:13;;;;;;;9.88;2.30;;;5.70;99.90;;;;;;5042388;28;20269;-73
2023/03/04 07:36:39;;;;;;;7.50;1.50;;;5.80;99.90;;;;;;5038788;28;20056;-73
2023/03/04 07:39:05;;;;;;;7.88;4.35;;;5.70;99.90;;;;;;5041083;28;20459;-73
2023/03/04 07:41:35;;;;;;;13.27;5.28;;;5.70;99.90;;;;;;5023254;28;20051;-73
2023/03/04 07:44:01;;;;;;;3.90;1.48;;;5.80;99.90;;;;;;5041502;28;20539;-73
2023/03/04 07:46:27;;;;;;;3.13;2.20;;;5.80;99.90;;;;;;5039104;28;20033;-73
2023/03/04 07:48:54;;;;;;;5.25;1.58;;;5.90;99.90;;;;;;5040737;28;20399;-73
2023/03/04 07:51:22;;;;;;;5.90;1.58;;;6.00;99.90;;;;;;5031376;28;20137;-73
2023/03/04 07:53:50;;;;;;;2.83;1.20;;;6.10;99.90;;;;;;5021832;28;20143;-73
2023/03/04 07:56:19;;;;;;;3.45;1.52;;;6.10;99.90;;;;;;5040810;28;20025;-74
2023/03/04 07:58:45;;;;;;;5.30;1.50;;;6.00;99.90;;;;;;5038908;28;20025;-73
2023/03/04 08:01:14;;;;;;;3.42;1.67;;;6.00;99.50;;;;;;5038494;28;20095;-73
2023/03/04 08:03:40;;;;;;;2.72;1.20;;;6.00;99.90;;;;;;5034631;28;20041;-73
2023/03/04 08:06:07;;;;;;;4.05;1.40;;;6.10;99.90;;;;;;5032831;28;20045;-74
2023/03/04 08:08:34;;;;;;;5.35;1.77;;;6.20;99.90;;;;;;5033588;28;20207;-73
2023/03/04 08:11:02;;;;;;;3.70;1.30;;;6.30;99.20;;;;;;5023425;28;20067;-73
2023/03/04 08:13:27;;;;;;;3.70;1.52;;;6.50;98.20;;;;;;5021942;28;20493;-73
2023/03/04 08:15:55;;;;;;;6.40;1.60;;;6.60;97.80;;;;;;5022758;28;20029;-73
2023/03/04 08:18:21;;;;;;;5.43;1.33;;;6.60;98.00;;;;;;5021316;28;20254;-73
2023/03/04 08:20:46;;;;;;;6.05;1.58;;;6.70;98.10;;;;;;5022121;28;20609;-73
2023/03/04 08:23:13;;;;;;;3.53;1.35;;;6.80;95.60;;;;;;5043660;28;20046;-73
2023/03/04 08:25:40;;;;;;;4.00;1.30;;;6.90;94.20;;;;;;5047750;28;20025;-73
2023/03/04 08:28:06;;;;;;;4.25;1.13;;;6.90;94.70;;;;;;5020578;28;20047;-73
2023/03/04 08:30:34;;;;;;;6.32;1.45;;;6.90;95.80;;;;;;5038045;28;20161;-73
2023/03/04 08:33:01;;;;;;;4.95;1.35;;;7.00;95.20;;;;;;5040742;28;20498;-74
2023/03/04 08:35:27;;;;;;;6.63;1.40;;;7.00;94.10;;;;;;5030334;28;20173;-73
2023/03/04 08:37:52;;;;;;;4.20;1.30;;;7.00;93.90;;;;;;5008218;28;20441;-73
2023/03/04 08:40:18;;;;;;;5.38;1.20;;;7.00;95.20;;;;;;5033635;28;20588;-73
2023/03/04 08:42:44;;;;;;;5.35;1.50;;;7.10;95.90;;;;;;5031649;28;20041;-73
2023/03/04 08:45:10;;;;;;;4.07;1.50;;;7.20;95.70;;;;;;5033564;28;20472;-73
2023/03/04 08:47:36;;;;;;;8.15;1.50;;;7.00;95.60;;;;;;5016097;28;20036;-73
2023/03/04 08:50:03;;;;;;;4.68;1.38;;;7.10;94.50;;;;;;5034531;28;20044;-73
2023/03/04 08:52:29;;;;;;;2.50;1.27;;;7.00;95.80;;;;;;5032948;28;20033;-72
2023/03/04 08:54:55;;;;;;;5.97;1.27;;;7.10;98.40;;;;;;5034916;28;20266;-73
2023/03/04 08:57:21;;;;;;;4.07;1.38;;;7.10;95.50;;;;;;5018424;28;20463;-73
2023/03/04 08:59:47;;;;;;;6.53;1.60;;;7.10;95.30;;;;;;5016757;28;20101;-73
2023/03/04 09:02:12;;;;;;;3.92;1.30;;;7.10;94.90;;;;;;5019241;28;20025;-73
2023/03/04 09:04:38;;;;;;;5.72;1.02;;;7.20;94.10;;;;;;5009007;28;20123;-74
2023/03/04 09:07:04;;;;;;;3.10;1.30;;;7.40;94.80;;;;;;5010155;28;20039;-73
2023/03/04 09:09:30;;;;;;;3.83;1.10;;;7.20;93.40;;;;;;5030469;28;20032;-74
2023/03/04 09:11:56;;;;;;;6.00;1.10;;;7.40;93.50;;;;;;5037098;28;20115;-74
2023/03/04 09:14:21;;;;;;;2.30;1.23;;;7.60;92.50;;;;;;5044115;28;20494;-74
2023/03/04 09:16:47;;;;;;;3.90;1.10;;;7.80;93.30;;;;;;5045254;28;20029;-74
2023/03/04 09:19:13;;;;;;;5.15;1.08;;;7.80;91.50;;;;;;5034248;28;20052;-74
2023/03/04 09:21:38;;;;;;;5.80;1.20;;;8.00;90.00;;;;;;5028850;28;20025;-74
2023/03/04 09:24:04;;;;;;;5.65;1.38;;;8.10;88.80;;;;;;5005792;28;20414;-75
2023/03/04 09:26:30;;;;;;;3.15;1.27;;;8.00;84.80;;;;;;5033081;28;20380;-74
2023/03/04 09:28:58;;;;;;;6.55;1.02;;;8.10;88.50;;;;;;5028733;28;20033;-74
2023/03/04 09:31:26;;;;;;;10.52;1.42;;;8.10;85.30;;;;;;5009645;28;20029;-74
2023/03/04 09:33:53;;;;;;;6.60;1.77;;;8.10;85.80;;;;;;5024230;28;20035;-75
2023/03/04 09:36:18;;;;;;;5.88;1.60;;;7.90;86.00;;;;;;5017409;28;20041;-75
2023/03/04 09:38:44;;;;;;;5.18;1.27;;;8.10;84.90;;;;;;5015933;28;20056;-75
2023/03/04 09:41:17;;;;;;;4.80;1.23;;;8.10;84.40;;;;;;5016304;28;20249;-75
2023/03/04 09:43:43;;;;;;;6.85;1.50;;;7.90;84.30;;;;;;5003798;28;20393;-74
2023/03/04 09:46:17;;;;;;;10.32;1.83;;;7.80;82.20;;;;;;5021461;28;20029;-74
2023/03/04 09:48:46;;;;;;;6.00;1.48;;;7.80;85.80;;;;;;5020244;28;20145;-75
2023/03/04 09:51:37;;;;;;;6.00;1.55;;;7.80;87.20;;;;;;5021676;28;20037;-78
2023/03/04 09:54:12;;;;;;;2.40;1.23;;;7.90;84.50;;;;;;5021283;28;20031;-77
2023/03/04 09:56:39;;;;;;;6.47;1.15;;;7.90;86.60;;;;;;5021320;28;20196;-75
2023/03/04 09:59:27;;;;;;;5.03;1.30;;;7.90;88.80;;;;;;5014804;28;20294;-75
2023/03/04 10:01:55;;;;;;;6.07;1.65;;;7.80;83.90;;;;;;5008097;28;20280;-75
2023/03/04 10:04:43;;;;;;;4.63;1.40;;;7.50;89.20;;;;;;5016389;28;20515;-75
2023/03/04 10:07:17;;;;;;;6.93;1.60;;;7.80;87.30;;;;;;5014310;28;20283;-74
2023/03/04 10:09:50;;;;;;;6.57;1.70;;;8.30;88.90;;;;;;5016200;28;20037;-74
2023/03/04 10:12:20;;;;;;;3.92;1.30;;;9.00;81.10;;;;;;5009444;28;20030;-75
2023/03/04 10:14:52;;;;;;;8.27;1.70;;;9.30;73.50;;;;;;5001758;28;20486;-75
2023/03/04 10:17:22;;;;;;;13.13;2.47;;;10.00;75.50;;;;;;5006788;28;20029;-75
2023/03/04 10:20:02;;;;;;;5.78;1.48;;;10.00;71.50;;;;;;5025028;28;20942;-75
2023/03/04 10:22:33;;;;;;;4.50;1.40;;;10.10;71.90;;;;;;5026176;28;20036;-74
2023/03/04 10:25:07;;;;;;;;;;;9.80;68.50;;;;;;3632971;28;10000357;-75
2023/03/04 10:27:33;;;;;;;5.15;1.35;;;9.80;68.90;;;;;;5004766;28;20401;-75
2023/03/04 10:29:59;;;;;;;5.07;1.50;;;9.50;68.10;;;;;;5026911;28;20445;-75
2023/03/04 10:32:25;;;;;;;6.90;1.08;;;9.70;68.70;;;;;;5028062;28;20029;-75
2023/03/04 10:34:50;;;;;;;6.35;1.40;;;10.00;71.10;;;;;;5010698;28;20041;-74
2023/03/04 10:37:16;;;;;;;5.00;1.40;;;10.10;72.00;;;;;;5007900;28;20029;-75
2023/03/04 10:39:44;;;;;;;5.90;1.42;;;10.10;73.80;;;;;;5029337;28;20033;-74
2023/03/04 10:42:13;;;;;;;2.25;1.42;;;10.10;76.40;;;;;;5023807;28;20291;-74
2023/03/04 10:44:42;;;;;;;4.22;1.45;;;10.00;78.20;;;;;;5017980;28;20266;-74
2023/03/04 10:47:13;;;;;;;3.28;1.35;;;9.90;73.60;;;;;;5021040;28;20071;-73
2023/03/04 10:50:02;;;;;;;3.53;1.30;;;9.90;76.70;;;;;;5001493;28;20036;-73
2023/03/04 10:52:34;;;;;;;5.30;1.30;;;9.80;72.30;;;;;;5018792;28;20110;-75
2023/03/04 10:55:03;;;;;;;5.32;1.25;;;9.70;77.50;;;;;;5027960;28;20141;-75
2023/03/04 10:57:38;;;;;;;2.90;1.00;;;9.50;78.10;;;;;;5011397;28;20120;-73
2023/03/04 11:00:16;;;;;;;5.10;1.15;;;9.50;76.10;;;;;;5008967;28;20029;-73
2023/03/04 11:02:46;;;;;;;2.70;0.80;;;9.30;76.50;;;;;;5027984;28;20376;-74
2023/03/04 11:05:18;;;;;;;1.70;0.80;;;8.70;77.60;;;;;;5023796;28;20033;-74
2023/03/04 11:07:58;;;;;;;3.90;0.88;;;8.70;82.40;;;;;;5020338;28;20037;-73
2023/03/04 11:10:38;;;;;;;2.55;1.10;;;8.80;83.60;;;;;;5004192;28;20156;-74
2023/03/04 11:13:19;;;;;;;3.40;0.80;;;8.80;80.00;;;;;;5024785;28;20628;-74
2023/03/04 11:15:55;;;;;;;1.67;0.80;;;9.00;82.10;;;;;;5029344;28;20514;-74
2023/03/04 11:18:42;;;;;;;5.05;1.10;;;9.50;79.10;;;;;;5027932;28;20119;-74
2023/03/04 11:21:14;;;;;;;5.03;0.93;;;9.80;79.80;;;;;;5025868;28;20281;-73
2023/03/04 11:23:48;;;;;;;1.85;0.90;;;10.20;73.40;;;;;;5007611;28;20021;-74
2023/03/04 11:26:20;;;;;;;2.15;0.80;;;10.30;67.70;;;;;;5021225;28;20048;-75
2023/03/04 11:28:50;;;;;;;1.27;0.70;;;10.70;68.80;;;;;;4999489;28;20517;-75
2023/03/04 11:31:22;;;;;;;2.15;0.70;;;11.20;71.00;;;;;;5016066;28;20044;-75
2023/03/04 11:34:10;;;;;;;2.42;0.90;;;11.90;62.20;;;;;;5011996;28;20033;-74
2023/03/04 11:36:55;;;;;;;2.38;0.90;;;12.70;58.90;;;;;;5020078;28;20056;-74
2023/03/04 11:39:31;;;;;;;3.45;0.93;;;12.80;56.60;;;;;;5019712;28;20036;-74
2023/03/04 11:42:09;;;;;;;2.50;0.85;;;12.70;57.10;;;;;;5004802;28;20348;-74
2023/03/04 11:44:35;;;;;;;1.58;0.70;;;12.50;55.70;;;;;;5018289;28;20029;-73
2023/03/04 11:47:30;;;;;;;4.03;1.20;;;12.10;57.60;;;;;;5018814;28;20056;-74
2023/03/04 11:50:20;;;;;;;2.65;0.80;;;11.90;58.30;;;;;;5004625;28;20092;-74
2023/03/04 11:53:25;;;;;;;4.38;0.90;;;11.80;59.40;;;;;;5024547;28;20063;-74
2023/03/04 11:56:10;;;;;;;2.35;1.15;;;11.60;60.60;;;;;;5005610;28;20138;-74
2023/03/04 11:59:03;;;;;;;1.35;0.70;;;11.00;59.70;;;;;;5029283;28;20028;-74
2023/03/04 12:01:57;;;;;;;4.35;0.98;;;10.50;59.20;;;;;;5025462;28;20072;-74
2023/03/04 12:04:42;;;;;;;1.80;0.70;;;10.10;62.20;;;;;;5013331;28;20222;-73
2023/03/04 12:07:38;;;;;;;3.38;0.93;;;9.70;64.70;;;;;;5025662;28;20060;-74
2023/03/04 12:10:04;;;;;;;4.25;1.08;;;9.60;66.90;;;;;;5024232;28;20040;-74
2023/03/04 12:12:55;;;;;;;3.67;0.82;;;9.40;69.90;;;;;;5026231;28;20415;-74
2023/03/04 12:15:41;;;;;;;3.03;0.80;;;9.30;71.10;;;;;;5028722;28;20036;-74
2023/03/04 12:18:16;;;;;;;3.55;1.05;;;9.40;67.30;;;;;;5009415;28;20112;-74
2023/03/04 12:21:26;;;;;;;3.15;0.80;;;9.50;69.00;;;;;;5029880;28;20035;-74
2023/03/04 12:24:25;;;;;;;2.15;0.90;;;9.30;69.60;;;;;;5015735;28;20616;-75
2023/03/04 12:27:12;;;;;;;5.20;0.90;;;9.40;66.80;;;;;;5034600;28;20363;-73
2023/03/04 12:30:00;;;;;;;3.03;0.70;;;9.40;70.20;;;;;;5035136;28;20151;-75
2023/03/04 12:32:25;;;;;;;2.70;0.77;;;9.60;65.90;;;;;;5026944;28;20025;-74
2023/03/04 12:34:56;;;;;;;2.45;1.00;;;9.70;65.50;;;;;;5017265;28;20311;-74
2023/03/04 12:37:44;;;;;;;2.97;0.80;;;9.70;65.40;;;;;;5016479;28;20764;-74
2023/03/04 12:40:26;;;;;;;3.03;0.80;;;9.70;64.90;;;;;;5031564;28;20566;-75
2023/03/04 12:43:30;;;;;;;2.42;0.80;;;9.80;64.50;;;;;;5024225;28;20123;-74
2023/03/04 12:46:24;;;;;;;2.97;0.80;;;9.50;66.60;;;;;;5026855;28;20021;-74
2023/03/04 12:49:09;;;;;;;2.70;0.90;;;9.10;67.50;;;;;;5025137;28;20041;-75
2023/03/04 12:51:48;;;;;;;1.73;0.95;;;9.00;71.10;;;;;;5024004;28;20090;-74
2023/03/04 12:54:51;;;;;;;2.05;0.90;;;8.90;71.00;;;;;;5022699;28;20037;-74
2023/03/04 12:57:23;;;;;;;1.42;0.82;;;9.10;71.70;;;;;;4944932;28;20041;-74
2023/03/04 12:59:53;;;;;;;4.95;1.10;;;9.30;73.30;;;;;;5011166;28;20463;-74
2023/03/04 13:02:37;;;;;;;2.70;0.77;;;9.60;71.30;;;;;;5030189;28;20033;-74
2023/03/04 13:05:12;;;;;;;2.25;0.73;;;9.60;65.20;;;;;;5024203;28;20423;-75
2023/03/04 13:07:55;;;;;;;3.03;0.90;;;9.50;67.40;;;;;;5025326;28;20236;-74